Latest Weather Observations for Canberra

IDN60901

Issued at 6:31 am EDT Monday 17 December 2018 (issued every 10 minutes, with the page automatically refreshed every 10 minutes)

About weather observations | Map of Canberra area stations | Latest observations for Canberra area | Other Formats
Station Details ID: 070351 Name: CANBERRA AIRPORT Lat: -35.31 Lon: 149.20 Height: 577.05 m
Data from the previous 72 hours. | See also: Recent months at Canberra
Date/Time
EDT
Temp
°C
App
Temp
°C
Dew
Point
°C
Rel
Hum
%
Delta-T
°C
Wind Press
QNH
hPa
Press
MSL
hPa
Rain since
9am
mm
Dir  Spd
km/h
Gust
km/h
Spd
kts
Gust
kts
17/06:30am 12.7 12.9 10.4 86 1.2 CALM 0 0 0 0 1011.2 1009.0 0.0
17/06:00am 10.9 10.4 9.3 90 0.8 NE 2 6 1 3 1011.2 1009.0 0.0
17/05:30am 11.1 11.0 9.5 90 0.8 CALM 0 0 0 0 1010.8 1008.6 0.0
17/05:00am 11.0 11.0 9.9 93 0.6 CALM 0 0 0 0 1010.5 1008.4 0.0
17/04:30am 11.2 11.2 9.8 91 0.7 CALM 0 0 0 0 1010.2 1008.0 0.0
17/04:00am 11.3 11.3 9.7 90 0.8 CALM 0 0 0 0 1010.1 1007.9 0.0
17/03:30am 11.3 11.3 9.7 90 0.8 CALM 0 0 0 0 1010.0 1007.8 0.0
17/03:00am 12.3 12.4 10.2 87 1.1 CALM 0 0 0 0 1010.0 1007.8 0.0
17/02:30am 12.2 12.3 10.1 87 1.1 CALM 0 0 0 0 1009.9 1007.7 0.0
17/02:00am 13.0 13.2 10.5 85 1.3 CALM 0 0 0 0 1010.1 1007.9 0.0
17/01:30am 12.5 11.4 10.6 88 1.0 NE 7 9 4 5 1010.1 1007.9 0.0
17/01:00am 13.1 13.4 11.0 87 1.1 CALM 0 0 0 0 1010.2 1008.0 0.0
17/12:30am 13.9 13.0 10.7 81 1.7 NE 6 9 3 5 1010.2 1008.0 0.0
17/12:00am 14.0 13.1 10.8 81 1.7 NE 6 11 3 6 1010.1 1007.9 0.0
 
Date/Time
EDT
Temp
°C
App
Temp
°C
Dew
Point
°C
Rel
Hum
%
Delta-T
°C
Wind Press
QNH
hPa
Press
MSL
hPa
Rain since
9am
mm
Dir  Spd
km/h
Gust
km/h
Spd
kts
Gust
kts
16/11:30pm 15.1 14.1 10.9 76 2.3 NE 7 7 4 4 1010.3 1008.1 0.0
16/11:00pm 15.1 14.1 10.9 76 2.3 NE 7 9 4 5 1010.1 1007.9 0.0
16/10:30pm 15.2 15.6 11.2 77 2.2 CALM 0 0 0 0 1009.8 1007.6 0.0
16/10:00pm 16.5 15.1 11.0 70 3.0 ENE 9 11 5 6 1009.7 1007.5 0.0
16/09:30pm 17.6 16.5 10.7 64 3.8 E 7 9 4 5 1009.5 1007.3 0.0
16/09:00pm 20.4 18.7 9.9 51 5.8 WNW 9 13 5 7 1009.1 1006.9 0.0
16/08:30pm 21.6 18.7 9.8 47 6.5 W 15 19 8 10 1008.8 1006.5 0.0
16/08:00pm 22.8 19.5 9.6 43 7.4 W 17 26 9 14 1008.5 1006.3 0.0
16/07:30pm 24.0 20.7 9.6 40 8.1 W 17 19 9 10 1008.2 1006.0 0.0
16/07:00pm 24.6 19.8 9.0 37 8.7 WNW 24 33 13 18 1008.0 1005.8 0.0
16/06:30pm 24.2 20.2 9.0 38 8.4 WNW 20 35 11 19 1007.8 1005.6 0.0
16/06:00pm 25.6 23.0 12.1 43 8.0 WNW 17 22 9 12 1007.5 1005.3 0.0
16/05:30pm 25.1 21.0 11.6 42 7.9 W 24 35 13 19 1007.5 1005.3 0.0
16/05:00pm 25.0 21.4 11.9 44 7.7 WNW 22 33 12 18 1007.5 1005.3 0.0
16/04:30pm 24.3 21.1 11.9 45 7.2 W 20 28 11 15 1007.5 1005.3 0.0
16/04:00pm 24.9 20.7 12.5 46 7.3 W 26 37 14 20 1007.6 1005.4 0.0
16/03:30pm 25.7 19.8 10.3 38 8.8 NW 32 52 17 28 1007.4 1005.2 0.0
16/03:11pm 25.7 20.1 10.3 38 8.8 NW 30 50 16 27 1007.4 1005.2 0.0
16/03:00pm 26.1 20.4 9.9 36 9.2 NNW 30 44 16 24 1007.4 1005.2 0.0
16/02:34pm 26.8 20.8 10.1 35 9.6 NW 32 50 17 27 1007.5 1005.3 0.0
16/02:30pm 26.7 21.3 10.8 37 9.2 NW 30 39 16 21 1007.4 1005.2 0.0
16/02:04pm 26.3 20.3 10.0 36 9.3 NW 32 50 17 27 1007.4 1005.2 0.0
16/02:00pm 26.7 20.1 10.0 35 9.6 NW 35 50 19 27 1007.5 1005.3 0.0
16/01:55pm 27.0 21.2 10.7 36 9.4 NNW 32 50 17 27 1007.4 1005.2 0.0
16/01:30pm 26.8 21.6 10.1 35 9.6 NNW 28 39 15 21 1007.8 1005.6 0.0
16/01:00pm 26.2 21.0 10.4 37 9.1 NW 28 39 15 21 1008.1 1005.9 0.0
16/12:31pm 25.8 20.5 10.0 37 9.0 NW 28 46 15 25 1008.4 1006.2 0.0
16/12:30pm 25.7 19.8 9.1 35 9.3 NW 30 46 16 25 1008.4 1006.2 0.0
16/12:26pm 25.9 20.6 9.7 36 9.2 NW 28 46 15 25 1008.5 1006.3 0.0
16/12:00pm 24.9 19.7 10.4 40 8.3 NW 28 37 15 20 1008.8 1006.5 0.0
16/11:30am 24.0 19.8 8.4 37 8.5 NW 20 30 11 16 1009.1 1006.9 0.0
16/11:00am 23.9 20.5 10.6 43 7.6 WNW 19 28 10 15 1009.2 1007.0 0.0
16/10:30am 23.2 19.0 9.6 42 7.6 NNW 22 30 12 16 1009.3 1007.1 0.0
16/10:00am 22.1 19.7 12.6 55 5.6 NW 17 24 9 13 1009.5 1007.3 0.0
16/09:30am 21.6 19.5 13.5 60 4.8 WNW 17 22 9 12 1009.4 1007.2 0.0
16/09:00am 21.6 20.3 12.5 56 5.3 WNW 11 20 6 11 1009.3 1007.1 0.0
16/08:30am 20.7 20.6 13.9 65 4.0 N 7 11 4 6 1009.3 1007.1 0.0
16/08:00am 18.9 20.5 15.0 78 2.3 CALM 0 0 0 0 1009.3 1007.1 0.0
16/07:30am 18.0 19.7 15.1 83 1.7 CALM 0 0 0 0 1009.0 1006.8 0.0
16/07:00am 16.6 18.5 15.8 95 0.5 CALM 0 0 0 0 1008.6 1006.4 0.0
16/06:30am 14.8 15.1 14.6 99 0.1 ESE 6 7 3 4 1008.4 1006.2 0.0
16/06:00am 13.8 13.6 13.6 99 0.1 ESE 7 9 4 5 1008.0 1005.8 0.0
16/05:30am 13.7 13.5 13.5 99 0.1 ENE 7 11 4 6 1007.6 1005.4 0.0
16/05:00am 14.0 15.2 13.7 98 0.2 CALM 0 0 0 0 1007.3 1005.0 0.0
16/04:30am 14.6 14.6 14.3 98 0.2 NNW 7 9 4 5 1007.0 1004.7 0.0
16/04:00am 15.6 16.0 15.4 99 0.1 E 7 9 4 5 1007.2 1004.9 0.0
16/03:30am 14.6 14.2 14.1 97 0.3 ESE 9 9 5 5 1007.3 1005.0 0.0
16/03:00am 15.4 16.9 14.6 95 0.5 CALM 0 0 0 0 1007.3 1005.0 0.0
16/02:30am 15.1 15.3 14.1 94 0.6 SE 6 7 3 4 1007.3 1005.0 0.0
16/02:00am 15.8 16.3 14.0 89 1.0 SSW 4 9 2 5 1007.3 1005.0 0.0
16/01:30am 16.6 16.5 13.9 84 1.6 SW 7 11 4 6 1007.4 1005.2 0.0
16/01:00am 17.5 17.4 14.0 80 2.1 WSW 7 9 4 5 1007.4 1005.2 0.0
16/12:30am 17.2 17.6 13.7 80 2.0 E 4 9 2 5 1007.4 1005.2 0.0
16/12:00am 19.1 18.4 13.1 68 3.5 N 9 11 5 6 1007.3 1005.0 0.0
 
Date/Time
EDT
Temp
°C
App
Temp
°C
Dew
Point
°C
Rel
Hum
%
Delta-T
°C
Wind Press
QNH
hPa
Press
MSL
hPa
Rain since
9am
mm
Dir  Spd
km/h
Gust
km/h
Spd
kts
Gust
kts
15/11:30pm 20.1 18.8 12.6 62 4.3 NNE 11 15 6 8 1007.2 1004.9 0.0
15/11:00pm 20.3 19.2 14.2 68 3.6 NNE 13 17 7 9 1007.3 1005.0 0.0
15/10:30pm 20.6 20.0 14.7 69 3.5 N 11 15 6 8 1007.5 1005.3 0.0
15/10:00pm 21.5 21.1 15.1 67 3.9 NE 11 15 6 8 1007.6 1005.4 0.0
15/09:30pm 21.8 20.3 15.4 67 3.9 ENE 17 22 9 12 1007.5 1005.3 0.0
15/09:00pm 21.7 19.4 8.9 44 7.0 NE 11 11 6 6 1007.1 1004.8 0.0
15/08:30pm 22.4 20.2 7.8 39 7.8 NNE 9 11 5 6 1006.8 1004.6 0.0
15/08:00pm 22.6 21.1 10.4 46 6.9 NNE 9 11 5 6 1006.7 1004.5 0.0
15/07:30pm 23.7 21.1 7.8 36 8.6 NW 11 15 6 8 1006.3 1004.1 0.0
15/07:00pm 24.6 21.7 8.1 35 9.1 NW 13 19 7 10 1005.3 1003.0 0.0
15/06:30pm 25.2 21.5 6.4 30 10.0 WNW 15 19 8 10 1005.2 1002.9 0.0
15/06:00pm 25.3 22.1 8.3 34 9.4 WNW 15 22 8 12 1004.9 1002.7 0.0
15/05:30pm 25.6 22.1 8.6 34 9.4 WNW 17 28 9 15 1004.8 1002.6 0.0
15/05:00pm 25.6 20.8 7.2 31 10.0 NW 22 33 12 18 1005.1 1002.8 0.0
15/04:30pm 25.3 20.9 7.4 32 9.7 NW 20 32 11 17 1005.7 1003.4 0.0
15/04:00pm 25.6 21.6 9.0 35 9.3 WNW 20 33 11 18 1005.5 1003.2 0.0
15/03:30pm 26.0 23.5 11.0 39 8.7 NW 15 22 8 12 1005.7 1003.4 0.0
15/03:00pm 25.6 22.5 9.0 35 9.3 NW 15 24 8 13 1006.3 1004.1 0.0
15/02:30pm 24.5 20.5 8.9 37 8.6 NW 20 28 11 15 1007.1 1004.8 0.0
15/02:00pm 24.9 20.7 8.4 35 9.1 WNW 20 32 11 17 1007.3 1005.0 0.0
15/01:30pm 25.1 22.6 10.9 41 8.2 NW 15 26 8 14 1007.4 1005.2 0.0
15/01:00pm 24.4 21.2 9.9 40 8.2 WNW 17 28 9 15 1007.8 1005.6 0.0
15/12:30pm 24.8 20.2 11.0 42 7.9 N 26 33 14 18 1008.2 1006.0 0.0
15/12:00pm 24.0 18.8 10.3 42 7.8 N 28 37 15 20 1008.4 1006.2 0.0
15/11:30am 24.8 19.6 10.3 40 8.2 N 28 37 15 20 1008.4 1006.2 0.0
15/11:00am 23.9 19.4 11.3 45 7.3 N 26 35 14 19 1008.6 1006.4 0.0
15/10:30am 22.7 18.3 11.7 49 6.3 N 26 35 14 19 1008.8 1006.5 0.0
15/10:00am 22.4 19.4 14.8 62 4.6 N 24 33 13 18 1008.8 1006.5 0.0
15/09:30am 21.8 19.5 15.6 68 3.8 N 22 32 12 17 1008.5 1006.3 0.0
15/09:00am 21.3 20.2 17.3 78 2.5 NNE 19 28 10 15 1008.4 1006.2 9.2
15/08:30am 20.3 19.7 17.5 84 1.8 NE 17 22 9 12 1008.1 1005.9 9.2
15/08:00am 19.5 20.9 17.8 90 1.1 NNE 7 13 4 7 1007.9 1005.7 9.2
15/07:30am 18.5 21.4 18.3 99 0.1 CALM 0 0 0 0 1007.6 1005.4 9.2
15/07:00am 18.1 19.2 17.9 99 0.1 W 9 11 5 6 1007.1 1004.8 9.0
15/06:30am 16.9 19.2 16.7 99 0.1 CALM 0 0 0 0 1006.5 1004.3 9.0
15/06:00am 16.5 17.3 16.3 99 0.1 S 7 9 4 5 1006.2 1004.0 9.0
15/05:30am 17.0 18.2 16.8 99 0.1 SSE 6 9 3 5 1006.0 1003.8 9.0
15/05:00am 17.1 17.4 16.9 99 0.1 E 11 11 6 6 1006.1 1003.9 9.0
15/04:57am 17.2 17.9 17.0 99 0.1 E 9 11 5 6 1006.0 1003.8 9.0
15/04:30am 17.7 20.3 17.5 99 0.1 CALM 0 0 0 0 1006.4 1004.2 9.0
15/04:00am 17.5 20.0 17.3 99 0.1 CALM 0 0 0 0 1006.0 1003.8 9.0
15/03:30am 17.4 19.9 17.2 99 0.1 CALM 0 6 0 3 1005.8 1003.5 9.0
15/03:19am 17.5 18.3 17.3 99 0.1 ENE 9 11 5 6 1005.8 1003.5 9.0
15/03:00am 17.4 18.5 17.2 99 0.1 NNE 7 13 4 7 1005.9 1003.7 9.0
15/02:57am 17.4 18.2 17.2 99 0.1 E 9 13 5 7 1006.2 1004.0 6.8
15/02:30am 17.4 18.5 17.2 99 0.1 SSE 7 9 4 5 1006.0 1003.8 3.8
15/02:00am 17.6 18.9 17.0 96 0.4 NE 6 7 3 4 1006.6 1004.4 3.0
15/01:30am 17.6 19.6 16.1 91 0.9 CALM 0 0 0 0 1006.6 1004.4 2.6
15/01:00am 17.6 18.0 16.3 92 0.8 NE 9 13 5 7 1007.2 1004.9 2.6
15/12:30am 17.7 18.3 15.7 88 1.2 ESE 7 11 4 6 1007.4 1005.2 2.6
15/12:00am 17.5 17.9 15.3 87 1.3 SSW 7 9 4 5 1007.3 1005.0 2.6
 
Date/Time
EDT
Temp
°C
App
Temp
°C
Dew
Point
°C
Rel
Hum
%
Delta-T
°C
Wind Press
QNH
hPa
Press
MSL
hPa
Rain since
9am
mm
Dir  Spd
km/h
Gust
km/h
Spd
kts
Gust
kts
14/11:44pm 17.4 17.8 14.7 84 1.6 S 6 9 3 5 1007.4 1005.2 2.6
14/11:30pm 17.4 17.7 14.9 85 1.5 S 7 11 4 6 1007.5 1005.3 2.6
14/11:10pm 17.0 17.8 14.8 87 1.3 SE 4 7 2 4 1007.7 1005.5 2.6
14/11:00pm 17.0 17.2 14.6 86 1.4 SE 7 9 4 5 1007.8 1005.6 2.6
14/10:59pm 17.0 16.8 14.6 86 1.4 SE 9 9 5 5 1007.8 1005.6 2.6
14/10:30pm 17.0 17.0 14.1 83 1.7 S 7 11 4 6 1008.0 1005.8 2.6
14/10:00pm 16.8 16.7 13.9 83 1.7 SSE 7 9 4 5 1007.9 1005.7 2.6
14/09:30pm 16.8 17.5 13.3 80 2.0 E 2 7 1 4 1007.2 1004.9 2.6
14/09:00pm 17.5 16.1 13.4 77 2.4 E 13 17 7 9 1006.8 1004.6 2.6
14/08:30pm 18.3 17.6 16.5 89 1.1 ESE 15 26 8 14 1006.4 1004.2 2.6
14/08:00pm 17.3 18.8 15.8 91 0.9 SE 2 7 1 4 1006.4 1004.2 2.4
14/07:30pm 17.2 17.6 15.2 88 1.2 SE 7 9 4 5 1006.1 1003.9 2.4
14/07:00pm 16.9 15.6 14.7 87 1.3 SE 15 19 8 10 1005.6 1003.3 2.4
14/06:30pm 16.9 15.3 14.9 88 1.2 ESE 17 26 9 14 1005.4 1003.1 2.4
14/06:00pm 16.4 15.6 14.1 86 1.3 NE 11 15 6 8 1005.7 1003.4 2.4
14/05:30pm 16.9 14.9 13.8 82 1.8 SE 17 24 9 13 1004.8 1002.6 1.8
14/05:00pm 16.4 13.0 13.7 84 1.6 ESE 24 32 13 17 1004.7 1002.5 1.8
14/04:46pm 17.1 15.5 13.8 81 1.9 E 15 24 8 13 1004.5 1002.3 1.8
14/04:30pm 17.1 14.7 12.6 75 2.6 ENE 17 30 9 16 1004.5 1002.3 1.8
14/04:00pm 20.5 18.9 15.1 71 3.3 ENE 17 28 9 15 1004.3 1002.1 1.4
14/03:30pm 20.9 19.6 15.9 73 3.1 ESE 17 22 9 12 1003.6 1001.3 1.4
14/03:13pm 21.9 20.9 15.7 68 3.8 E 15 20 8 11 1004.0 1001.7 1.4
14/03:00pm 22.2 20.5 14.6 62 4.6 E 17 24 9 13 1004.0 1001.7 1.4
14/02:30pm 22.5 22.0 14.9 62 4.6 SSE 11 22 6 12 1004.3 1002.1 1.4
14/02:00pm 22.5 22.9 16.3 68 3.9 SSE 9 13 5 7 1004.6 1002.4 1.4
14/01:30pm 21.2 20.0 14.1 64 4.2 NE 13 19 7 10 1004.8 1002.6 1.4
14/01:00pm 20.2 18.8 15.6 75 2.8 NE 17 24 9 13 1004.5 1002.3 1.4
14/12:57pm 19.9 18.6 15.7 77 2.6 NNE 17 24 9 13 1004.5 1002.3 1.4
14/12:30pm 19.6 18.3 16.8 84 1.7 NNE 19 26 10 14 1005.1 1002.8 1.2
14/12:28pm 19.6 18.2 16.6 83 1.9 NNE 19 28 10 15 1005.2 1002.9 1.2
14/12:15pm 20.2 19.3 15.8 76 2.7 NE 15 22 8 12 1004.9 1002.7 1.0
14/12:00pm 19.8 18.3 16.4 81 2.1 E 19 30 10 16 1004.6 1002.4 1.0
14/11:30am 20.2 17.5 16.6 80 2.2 ENE 26 35 14 19 1004.7 1002.5 1.0
14/11:00am 19.9 18.0 16.7 82 2.0 E 22 32 12 17 1004.4 1002.2 1.0
14/10:30am 19.5 17.9 17.5 88 1.3 E 22 30 12 16 1004.4 1002.2 1.0
14/10:00am 19.0 18.6 16.2 84 1.7 ENE 13 20 7 11 1005.1 1002.8 0.0
14/09:30am 18.8 17.5 15.7 82 1.9 ENE 17 28 9 15 1004.4 1002.2 0.0
14/09:00am 18.7 16.9 15.4 81 2.0 E 19 26 10 14 1004.1 1001.8 33.2
14/08:30am 18.1 16.8 15.9 87 1.3 E 17 24 9 13 1004.1 1001.8 33.2
14/08:00am 17.5 16.7 16.0 91 0.9 E 15 22 8 12 1004.1 1001.8 33.2
14/07:30am 17.3 16.6 16.3 94 0.6 E 15 20 8 11 1003.8 1001.5 33.2
14/07:00am 16.7 16.4 16.5 99 0.1 E 13 17 7 9 1003.5 1001.2 33.2
14/06:56am 16.7 16.8 16.5 99 0.1 E 11 17 6 9 1003.5 1001.2 33.2

Latest Capital City Observations: Canberra | Sydney | Melbourne | Brisbane | Adelaide | Perth | Hobart | Darwin

Other Formats:

Comma delimited format used in spreadsheet applications
http://www.bom.gov.au/fwo/IDN60903/IDN60903.94926.axf

JavaScript Object Notation format (JSON) in row-major order
http://www.bom.gov.au/fwo/IDN60903/IDN60903.94926.json